Time;durP1;ratioP1;P1;durP2;ratioP2;P2;SDS_P1;SDS_P2;PMS_P1;PMS_P2;Temp;Humidity;BMP_temperature;BMP_pressure;BME280_temperature;BME280_humidity;BME280_pressure;Samples;Min_cycle;Max_cycle;Signal;HPM_P1;HPM_P2
2023/04/15 00:02:18;;;;;;;11.93;6.70;;;7.20;99.90;;;;;;4994589;28;20038;-83
2023/04/15 00:04:45;;;;;;;12.57;6.63;;;7.20;99.90;;;;;;5013355;28;20132;-83
2023/04/15 00:07:11;;;;;;;9.90;7.10;;;7.10;99.90;;;;;;4992934;28;20038;-84
2023/04/15 00:09:37;;;;;;;12.13;7.13;;;7.10;99.90;;;;;;5003107;28;20104;-83
2023/04/15 00:12:04;;;;;;;13.87;6.67;;;7.00;99.90;;;;;;5012207;28;20037;-83
2023/04/15 00:14:30;;;;;;;10.87;6.60;;;7.00;99.90;;;;;;5010997;28;20038;-83
2023/04/15 00:16:56;;;;;;;11.83;6.70;;;7.00;99.90;;;;;;4984210;28;20041;-83
2023/04/15 00:19:23;;;;;;;12.30;7.40;;;7.00;99.90;;;;;;4981699;28;20413;-83
2023/04/15 00:21:49;;;;;;;10.90;6.93;;;7.00;99.90;;;;;;5009107;28;20045;-83
2023/04/15 00:24:14;;;;;;;12.17;8.10;;;6.90;99.90;;;;;;4998328;28;20449;-84
2023/04/15 00:26:40;;;;;;;11.97;6.63;;;6.90;99.90;;;;;;5009011;28;20069;-83
2023/04/15 00:29:06;;;;;;;10.90;7.20;;;6.90;99.90;;;;;;4995381;28;20044;-83
2023/04/15 00:31:31;;;;;;;12.47;7.30;;;6.80;99.90;;;;;;5000350;28;20049;-83
2023/04/15 00:33:58;;;;;;;14.23;7.97;;;6.80;99.90;;;;;;5003621;28;20124;-83
2023/04/15 00:36:25;;;;;;;13.03;7.47;;;6.80;99.90;;;;;;5004385;28;20045;-83
2023/04/15 00:38:50;;;;;;;12.33;7.43;;;6.80;99.90;;;;;;5033108;28;20464;-83
2023/04/15 00:41:18;;;;;;;12.87;7.47;;;6.70;99.90;;;;;;4999392;28;20077;-83
2023/04/15 00:43:43;;;;;;;13.47;7.23;;;6.70;99.90;;;;;;4999628;28;20120;-83
2023/04/15 00:46:13;;;;;;;13.53;7.87;;;6.70;99.90;;;;;;4976839;28;20529;-83
2023/04/15 00:48:39;;;;;;;13.80;7.47;;;6.70;99.90;;;;;;5004911;28;20108;-83
2023/04/15 00:51:06;;;;;;;15.00;7.77;;;6.70;99.90;;;;;;5020830;28;20056;-83
2023/04/15 00:53:32;;;;;;;12.70;7.20;;;6.60;99.90;;;;;;4983121;28;20050;-84
2023/04/15 00:55:57;;;;;;;11.33;7.37;;;6.60;99.90;;;;;;5000024;28;20389;-83
2023/04/15 00:58:23;;;;;;;12.87;8.27;;;6.60;99.90;;;;;;4981945;28;20473;-83
2023/04/15 01:00:53;;;;;;;12.60;8.40;;;6.60;99.90;;;;;;4999273;28;20148;-83
2023/04/15 01:03:19;;;;;;;12.60;7.77;;;6.60;99.90;;;;;;5016022;28;20030;-83
2023/04/15 01:05:45;;;;;;;15.73;8.33;;;6.50;99.90;;;;;;5032001;28;20053;-83
2023/04/15 01:08:11;;;;;;;12.20;8.20;;;6.50;99.90;;;;;;5029605;28;20037;-83
2023/04/15 01:10:38;;;;;;;16.57;8.23;;;6.50;99.90;;;;;;4993259;28;20081;-83
2023/04/15 01:13:04;;;;;;;12.27;8.07;;;6.40;99.90;;;;;;5007509;28;20120;-83
2023/04/15 01:15:30;;;;;;;14.30;7.80;;;6.40;99.90;;;;;;5031859;28;20168;-83
2023/04/15 01:18:01;;;;;;;11.10;8.43;;;6.40;99.90;;;;;;5025941;28;20462;-83
2023/04/15 01:20:28;;;;;;;13.03;8.20;;;6.40;99.90;;;;;;5009757;28;20041;-84
2023/04/15 01:22:54;;;;;;;12.77;7.57;;;6.30;99.90;;;;;;4999088;28;20458;-83
2023/04/15 01:25:31;;;;;;;12.87;8.00;;;6.30;99.90;;;;;;4997224;28;20054;-83
2023/04/15 01:27:58;;;;;;;12.00;8.80;;;6.20;99.90;;;;;;5000422;28;20046;-83
2023/04/15 01:30:24;;;;;;;14.33;8.50;;;6.20;99.90;;;;;;4991879;28;20390;-84
2023/04/15 01:32:51;;;;;;;13.57;8.13;;;6.20;99.90;;;;;;4970223;28;20041;-84
2023/04/15 01:35:17;;;;;;;11.77;8.20;;;6.10;99.90;;;;;;4986554;28;20049;-83
2023/04/15 01:37:43;;;;;;;12.07;8.90;;;6.00;99.90;;;;;;4988087;28;20038;-83
2023/04/15 01:40:09;;;;;;;15.07;9.43;;;6.00;99.90;;;;;;4966603;28;20041;-83
2023/04/15 01:42:36;;;;;;;15.60;8.97;;;6.00;99.90;;;;;;5011987;28;20108;-83
2023/04/15 01:45:02;;;;;;;10.53;8.40;;;5.90;99.90;;;;;;5012055;28;20046;-83
2023/04/15 01:47:28;;;;;;;14.60;9.00;;;5.80;99.90;;;;;;4988788;28;20837;-84
2023/04/15 01:49:54;;;;;;;15.63;9.43;;;5.80;99.90;;;;;;5006344;28;20050;-84
2023/04/15 01:52:19;;;;;;;13.60;9.17;;;5.80;99.90;;;;;;4996256;28;20132;-83
2023/04/15 01:54:46;;;;;;;13.80;9.40;;;5.70;99.90;;;;;;5031023;28;20119;-83
2023/04/15 01:57:12;;;;;;;17.00;10.07;;;5.70;99.90;;;;;;5000774;28;20050;-83
2023/04/15 01:59:38;;;;;;;14.00;8.63;;;5.70;99.90;;;;;;5011333;28;20350;-83
2023/04/15 02:02:04;;;;;;;17.70;10.17;;;5.60;99.90;;;;;;5017550;28;20452;-83
2023/04/15 02:04:30;;;;;;;15.03;9.70;;;5.60;99.90;;;;;;4994566;28;20069;-84
2023/04/15 02:06:56;;;;;;;15.20;9.97;;;5.60;99.90;;;;;;5009117;28;20042;-83
2023/04/15 02:09:22;;;;;;;15.23;10.30;;;5.50;99.90;;;;;;5007584;28;20103;-83
2023/04/15 02:11:47;;;;;;;13.07;9.77;;;5.50;99.90;;;;;;5014838;28;20049;-83
2023/04/15 02:14:13;;;;;;;18.50;10.47;;;5.50;99.90;;;;;;4977033;28;20112;-83
2023/04/15 02:16:39;;;;;;;16.53;10.60;;;5.50;99.90;;;;;;4994186;28;20061;-83
2023/04/15 02:19:05;;;;;;;14.60;10.40;;;5.50;99.90;;;;;;4989006;28;20041;-84
2023/04/15 02:21:30;;;;;;;13.57;10.07;;;5.50;99.90;;;;;;5006249;28;20053;-84
2023/04/15 02:23:56;;;;;;;15.37;10.97;;;5.40;99.90;;;;;;4990007;28;20045;-84
2023/04/15 02:26:24;;;;;;;15.83;10.57;;;5.40;99.90;;;;;;5009973;28;20045;-83
2023/04/15 02:28:52;;;;;;;17.20;9.87;;;5.40;99.90;;;;;;5006303;28;20520;-84
2023/04/15 02:31:18;;;;;;;16.73;10.53;;;5.40;99.90;;;;;;5023644;28;20049;-83
2023/04/15 02:33:44;;;;;;;15.33;10.37;;;5.40;99.90;;;;;;4994807;28;20034;-84
2023/04/15 02:36:11;;;;;;;14.33;11.00;;;5.40;99.90;;;;;;4993124;28;20093;-84
2023/04/15 02:38:39;;;;;;;17.30;10.87;;;5.40;99.90;;;;;;4985866;28;20052;-84
2023/04/15 02:41:04;;;;;;;16.53;10.30;;;5.40;99.90;;;;;;5011275;28;20049;-79
2023/04/15 02:43:30;;;;;;;17.07;10.53;;;5.40;99.90;;;;;;4973358;28;20392;-79
2023/04/15 02:45:56;;;;;;;14.13;10.60;;;5.30;99.90;;;;;;4996188;28;21549;-79
2023/04/15 02:48:21;;;;;;;16.57;10.50;;;5.30;99.90;;;;;;4991615;28;20073;-79
2023/04/15 02:50:47;;;;;;;14.23;10.23;;;5.30;99.90;;;;;;5010447;28;20058;-79
2023/04/15 02:53:13;;;;;;;16.23;10.77;;;5.30;99.90;;;;;;5006157;28;20038;-79
2023/04/15 02:55:39;;;;;;;17.97;10.83;;;5.30;99.90;;;;;;5004823;28;20466;-79
2023/04/15 02:58:06;;;;;;;16.40;11.13;;;5.30;99.90;;;;;;4996557;28;20195;-79
2023/04/15 03:00:32;;;;;;;16.40;11.23;;;5.30;99.90;;;;;;5001048;28;20045;-79
2023/04/15 03:03:05;;;;;;;17.40;11.50;;;5.30;99.90;;;;;;4979563;28;20401;-79
2023/04/15 03:05:31;;;;;;;17.10;11.80;;;5.30;99.90;;;;;;5011761;28;20038;-79
2023/04/15 03:07:56;;;;;;;17.03;11.03;;;5.20;99.90;;;;;;4986476;28;20183;-79
2023/04/15 03:10:22;;;;;;;16.93;11.27;;;5.20;99.90;;;;;;4972086;28;20140;-79
2023/04/15 03:12:48;;;;;;;16.10;11.53;;;5.20;99.90;;;;;;4986821;28;20412;-79
2023/04/15 03:15:14;;;;;;;15.80;11.17;;;5.20;99.90;;;;;;5001562;28;20506;-79
2023/04/15 03:17:40;;;;;;;16.67;11.07;;;5.20;99.90;;;;;;4995073;28;20116;-79
2023/04/15 03:20:06;;;;;;;18.00;11.83;;;5.20;99.90;;;;;;4976470;28;20046;-79
2023/04/15 03:22:32;;;;;;;18.03;11.93;;;5.20;99.90;;;;;;4995393;28;20041;-79
2023/04/15 03:24:58;;;;;;;17.10;12.30;;;5.20;99.90;;;;;;5003741;28;20049;-79
2023/04/15 03:27:24;;;;;;;17.87;12.53;;;5.20;99.90;;;;;;5007352;28;20392;-79
2023/04/15 03:29:50;;;;;;;16.27;11.33;;;5.10;99.90;;;;;;4981193;28;20046;-79
2023/04/15 03:32:16;;;;;;;17.40;12.37;;;5.10;99.90;;;;;;4991935;28;20100;-79
2023/04/15 03:34:42;;;;;;;19.97;13.13;;;5.10;99.90;;;;;;4994385;28;20033;-79
2023/04/15 03:37:08;;;;;;;18.30;12.30;;;5.10;99.90;;;;;;4990123;28;20034;-79
2023/04/15 03:39:34;;;;;;;19.93;12.63;;;5.10;99.90;;;;;;5011783;28;20037;-79
2023/04/15 03:42:00;;;;;;;18.87;13.93;;;5.10;99.90;;;;;;5010038;28;20501;-79
2023/04/15 03:44:26;;;;;;;19.40;12.30;;;5.00;99.90;;;;;;4981915;28;20386;-79
2023/04/15 03:46:53;;;;;;;18.27;13.00;;;5.00;99.90;;;;;;4990966;28;20045;-79
2023/04/15 03:49:19;;;;;;;16.90;12.53;;;5.00;99.90;;;;;;5009794;28;20108;-79
2023/04/15 03:51:45;;;;;;;18.83;12.53;;;4.90;99.90;;;;;;5003864;28;20074;-79
2023/04/15 03:54:14;;;;;;;19.83;13.53;;;4.90;99.90;;;;;;4988682;28;20470;-78
2023/04/15 03:56:39;;;;;;;18.90;14.07;;;4.80;99.90;;;;;;5014664;28;20096;-79
2023/04/15 03:59:05;;;;;;;18.57;13.43;;;4.80;99.90;;;;;;5007449;28;20041;-79
2023/04/15 04:01:31;;;;;;;22.50;14.57;;;4.80;99.90;;;;;;4992713;28;20129;-79
2023/04/15 04:03:57;;;;;;;20.43;13.93;;;4.70;99.90;;;;;;4990486;28;20209;-79
2023/04/15 04:06:22;;;;;;;23.07;15.37;;;4.70;99.90;;;;;;4997582;28;20107;-79
2023/04/15 04:08:48;;;;;;;25.23;16.27;;;4.70;99.90;;;;;;4990257;28;20449;-79
2023/04/15 04:11:14;;;;;;;23.80;16.30;;;4.80;99.90;;;;;;5004986;28;20116;-79
2023/04/15 04:13:40;;;;;;;22.00;15.47;;;4.80;99.90;;;;;;5001073;28;20041;-79
2023/04/15 04:16:06;;;;;;;21.40;15.10;;;4.70;99.90;;;;;;4996585;28;20100;-79
2023/04/15 04:18:32;;;;;;;24.27;15.93;;;4.70;99.90;;;;;;4996205;28;20481;-79
2023/04/15 04:20:58;;;;;;;22.47;15.47;;;4.70;99.90;;;;;;5010998;28;20536;-79
2023/04/15 04:23:24;;;;;;;24.23;16.77;;;4.60;99.90;;;;;;5009648;28;20125;-79
2023/04/15 04:25:50;;;;;;;28.47;19.40;;;4.60;99.90;;;;;;4991632;28;20060;-79
2023/04/15 04:28:15;;;;;;;29.90;18.83;;;4.60;99.90;;;;;;4980841;28;20199;-79
2023/04/15 04:30:41;;;;;;;30.83;19.20;;;4.70;99.90;;;;;;4991682;28;20046;-79
2023/04/15 04:33:07;;;;;;;33.10;21.20;;;4.70;99.90;;;;;;5009330;28;20095;-79
2023/04/15 04:35:33;;;;;;;30.30;18.60;;;4.70;99.90;;;;;;4989672;28;20076;-79
2023/04/15 04:38:00;;;;;;;31.47;19.70;;;4.70;99.90;;;;;;4998034;28;20045;-79
2023/04/15 04:40:26;;;;;;;30.60;19.17;;;4.70;99.90;;;;;;5010392;28;20049;-79
2023/04/15 04:42:53;;;;;;;32.13;19.00;;;4.70;99.90;;;;;;4992937;28;20074;-79
2023/04/15 04:45:19;;;;;;;31.77;20.97;;;4.60;99.90;;;;;;5000005;28;20045;-79
2023/04/15 04:47:45;;;;;;;31.77;20.57;;;4.60;99.90;;;;;;4991534;28;20042;-79
2023/04/15 04:50:11;;;;;;;31.57;19.77;;;4.60;99.90;;;;;;5012036;28;20125;-80
2023/04/15 04:52:37;;;;;;;33.13;19.83;;;4.60;99.90;;;;;;4985502;28;20040;-78
2023/04/15 04:55:04;;;;;;;36.70;21.20;;;4.70;99.90;;;;;;5001970;28;20108;-79
2023/04/15 04:57:30;;;;;;;27.30;18.37;;;4.70;99.90;;;;;;5022108;28;20042;-79
2023/04/15 04:59:56;;;;;;;29.07;19.40;;;4.70;99.90;;;;;;4990188;28;20034;-78
2023/04/15 05:02:22;;;;;;;26.40;17.63;;;4.70;99.90;;;;;;4974108;28;20486;-79
2023/04/15 05:04:49;;;;;;;28.73;19.40;;;4.60;99.90;;;;;;5005029;28;20044;-79
2023/04/15 05:07:14;;;;;;;30.10;19.33;;;4.60;99.90;;;;;;5019497;28;20132;-79
2023/04/15 05:09:40;;;;;;;26.07;18.23;;;4.50;99.90;;;;;;5029825;28;20097;-79
2023/04/15 05:12:07;;;;;;;30.20;18.87;;;4.60;99.90;;;;;;5005398;28;20103;-79
2023/04/15 05:14:33;;;;;;;31.03;19.07;;;4.60;99.90;;;;;;5019683;28;20054;-79
2023/04/15 05:16:59;;;;;;;31.17;20.00;;;4.60;99.90;;;;;;5028415;28;20121;-79
2023/04/15 05:19:25;;;;;;;33.30;21.60;;;4.60;99.90;;;;;;5009334;28;20501;-79
2023/04/15 05:21:50;;;;;;;29.70;19.27;;;4.70;99.90;;;;;;5005119;28;20045;-79
2023/04/15 05:24:17;;;;;;;33.43;20.40;;;4.70;99.90;;;;;;5027149;28;20049;-79
2023/04/15 05:26:42;;;;;;;33.60;21.83;;;4.80;99.90;;;;;;5026617;28;20048;-79
2023/04/15 05:29:08;;;;;;;36.10;21.23;;;4.80;99.90;;;;;;5015564;28;20038;-79
2023/04/15 05:31:35;;;;;;;32.80;20.90;;;4.90;99.90;;;;;;4995963;28;20427;-79
2023/04/15 05:34:00;;;;;;;31.47;20.40;;;4.90;99.90;;;;;;4989353;28;20037;-79
2023/04/15 05:36:27;;;;;;;30.13;19.90;;;5.00;99.90;;;;;;5006683;28;20133;-79
2023/04/15 05:38:53;;;;;;;31.83;20.23;;;5.00;99.90;;;;;;4996528;28;20045;-79
2023/04/15 05:41:18;;;;;;;28.17;17.87;;;5.10;99.90;;;;;;4994559;28;20034;-79
2023/04/15 05:43:44;;;;;;;28.90;19.20;;;5.20;99.90;;;;;;5022815;28;20042;-79
2023/04/15 05:46:10;;;;;;;30.10;18.63;;;5.20;99.90;;;;;;4977620;28;20103;-79
2023/04/15 05:48:35;;;;;;;28.20;19.00;;;5.30;99.90;;;;;;5012679;28;21408;-79
2023/04/15 05:51:01;;;;;;;24.87;17.13;;;5.30;99.90;;;;;;5002860;28;20045;-79
2023/04/15 05:53:27;;;;;;;26.67;16.40;;;5.40;99.90;;;;;;5010378;28;20080;-79
2023/04/15 05:55:53;;;;;;;23.37;16.23;;;5.50;99.90;;;;;;5029237;28;20409;-79
2023/04/15 05:58:18;;;;;;;25.90;17.40;;;5.50;99.90;;;;;;5012312;28;20088;-79
2023/04/15 06:00:45;;;;;;;26.63;18.33;;;5.60;99.90;;;;;;5006623;28;20076;-79
2023/04/15 06:03:11;;;;;;;26.73;17.47;;;5.70;99.90;;;;;;4996354;28;20044;-79
2023/04/15 06:05:37;;;;;;;26.27;17.17;;;5.80;99.90;;;;;;4996663;28;20037;-79
2023/04/15 06:08:03;;;;;;;26.33;18.07;;;5.80;99.90;;;;;;5023082;28;20077;-79
2023/04/15 06:10:29;;;;;;;29.63;19.00;;;5.90;99.90;;;;;;5016009;28;20034;-79
2023/04/15 06:12:55;;;;;;;29.60;18.50;;;6.00;99.90;;;;;;5027900;28;20365;-79
2023/04/15 06:15:21;;;;;;;28.37;18.30;;;6.00;99.90;;;;;;5012583;28;20038;-79
2023/04/15 06:17:47;;;;;;;29.37;17.73;;;6.10;99.90;;;;;;5001055;28;20038;-79
2023/04/15 06:20:13;;;;;;;29.63;18.83;;;6.20;99.90;;;;;;4973005;28;20060;-79
2023/04/15 06:22:38;;;;;;;27.70;18.17;;;6.20;99.90;;;;;;5013270;28;20174;-79
2023/04/15 06:25:06;;;;;;;26.77;18.50;;;6.30;99.90;;;;;;4999488;28;20155;-79
2023/04/15 06:27:32;;;;;;;26.10;18.53;;;6.30;99.90;;;;;;5016760;28;20050;-79
2023/04/15 06:29:58;;;;;;;27.43;18.17;;;6.40;99.90;;;;;;4996361;28;20102;-79
2023/04/15 06:32:23;;;;;;;28.10;19.27;;;6.50;99.90;;;;;;5013142;28;20051;-79
2023/04/15 06:34:49;;;;;;;27.87;18.80;;;6.50;99.90;;;;;;4997141;28;20048;-79
2023/04/15 06:37:15;;;;;;;26.50;18.40;;;6.50;99.90;;;;;;5012886;28;20041;-79
2023/04/15 06:39:44;;;;;;;29.30;18.40;;;6.60;99.90;;;;;;4995863;28;20038;-80
2023/04/15 06:42:10;;;;;;;29.27;17.87;;;6.60;99.90;;;;;;5026924;28;20103;-79
2023/04/15 06:44:37;;;;;;;27.40;18.60;;;6.60;99.90;;;;;;5012029;28;20381;-79
2023/04/15 06:47:02;;;;;;;30.70;18.80;;;6.70;99.90;;;;;;5003315;28;20080;-78
2023/04/15 06:49:28;;;;;;;26.43;18.90;;;6.70;99.90;;;;;;5024734;28;20089;-79
2023/04/15 06:51:54;;;;;;;28.33;18.67;;;6.70;99.90;;;;;;5010388;28;20050;-79
2023/04/15 06:54:20;;;;;;;26.80;17.37;;;6.80;99.90;;;;;;5035790;28;20099;-79
2023/04/15 06:56:46;;;;;;;29.33;18.53;;;6.80;99.90;;;;;;5023058;28;20505;-79
2023/04/15 06:59:13;;;;;;;29.50;18.47;;;6.90;99.90;;;;;;5035591;28;20045;-78
2023/04/15 07:01:40;;;;;;;26.47;17.20;;;6.90;99.90;;;;;;5030977;28;20045;-79
2023/04/15 07:04:06;;;;;;;27.20;17.53;;;7.00;99.90;;;;;;5004193;28;20049;-78
2023/04/15 07:06:32;;;;;;;27.37;17.13;;;7.00;99.90;;;;;;5035691;28;20046;-79
2023/04/15 07:08:58;;;;;;;23.83;16.80;;;7.00;99.90;;;;;;5011513;28;20439;-78
2023/04/15 07:11:25;;;;;;;25.80;17.30;;;7.10;99.90;;;;;;5015824;28;20084;-79
2023/04/15 07:13:51;;;;;;;24.57;16.50;;;7.00;99.90;;;;;;5035217;28;20084;-79
2023/04/15 07:16:17;;;;;;;26.40;16.87;;;7.10;99.90;;;;;;5019140;28;20069;-79
2023/04/15 07:18:43;;;;;;;25.20;17.20;;;7.10;99.90;;;;;;4993200;28;20133;-78
2023/04/15 07:21:08;;;;;;;24.47;16.20;;;7.20;99.90;;;;;;5019309;28;20116;-79
2023/04/15 07:23:34;;;;;;;26.03;16.17;;;7.20;99.90;;;;;;5011959;28;20825;-79
2023/04/15 07:26:00;;;;;;;24.87;15.57;;;7.30;99.90;;;;;;4999184;28;20110;-78
2023/04/15 07:28:26;;;;;;;24.17;16.30;;;7.40;99.90;;;;;;5018114;28;20470;-79
2023/04/15 07:30:52;;;;;;;24.43;15.87;;;7.40;99.90;;;;;;4996274;28;20163;-79
2023/04/15 07:33:17;;;;;;;25.33;15.97;;;7.40;99.90;;;;;;5020296;28;20833;-79
2023/04/15 07:35:44;;;;;;;23.97;16.83;;;7.50;99.90;;;;;;5002035;28;20029;-78
2023/04/15 07:38:12;;;;;;;24.13;15.77;;;7.50;99.90;;;;;;5014601;28;20580;-79
2023/04/15 07:40:38;;;;;;;23.73;15.43;;;7.60;99.90;;;;;;5035836;28;20076;-79
2023/04/15 07:43:04;;;;;;;21.67;14.73;;;7.70;99.90;;;;;;5015485;28;20486;-78
2023/04/15 07:45:34;;;;;;;22.43;15.03;;;7.70;99.90;;;;;;5033976;28;20125;-79
2023/04/15 07:48:01;;;;;;;23.93;15.83;;;7.80;99.90;;;;;;5019487;28;20514;-79
2023/04/15 07:50:27;;;;;;;26.13;14.40;;;7.90;99.90;;;;;;5034856;28;20068;-79
2023/04/15 07:52:53;;;;;;;23.07;15.33;;;7.90;99.90;;;;;;5029976;28;20132;-79
2023/04/15 07:55:21;;;;;;;22.50;14.07;;;8.00;99.90;;;;;;5027762;28;20037;-79
2023/04/15 07:57:48;;;;;;;18.97;13.07;;;8.10;99.90;;;;;;5004244;28;20046;-79
2023/04/15 08:00:15;;;;;;;16.03;11.50;;;8.10;99.90;;;;;;5017750;28;20099;-79
2023/04/15 08:02:45;;;;;;;14.43;10.13;;;8.20;99.90;;;;;;5014351;28;20037;-80
2023/04/15 08:05:13;;;;;;;12.63;8.50;;;8.30;99.90;;;;;;5016346;28;20497;-80
2023/04/15 08:07:38;;;;;;;11.13;7.63;;;8.40;99.90;;;;;;5028176;28;20099;-79
2023/04/15 08:10:05;;;;;;;12.60;8.40;;;8.50;99.90;;;;;;4999786;28;20037;-79
2023/04/15 08:12:31;;;;;;;12.63;7.63;;;8.50;99.90;;;;;;5031644;28;20477;-77
2023/04/15 08:14:56;;;;;;;11.43;7.80;;;8.60;99.90;;;;;;5009852;28;20080;-77
2023/04/15 08:17:23;;;;;;;10.90;7.83;;;8.60;99.90;;;;;;5027098;28;20080;-78
2023/04/15 08:19:49;;;;;;;10.77;7.93;;;8.60;99.90;;;;;;5023630;28;20034;-77
2023/04/15 08:22:14;;;;;;;10.20;7.13;;;8.50;99.90;;;;;;5019967;28;20049;-79
2023/04/15 08:24:40;;;;;;;10.27;7.40;;;8.50;99.90;;;;;;5015351;28;20045;-80
2023/04/15 08:27:06;;;;;;;11.87;7.13;;;8.50;99.90;;;;;;5015718;28;20124;-79
2023/04/15 08:29:33;;;;;;;10.70;7.27;;;8.50;99.90;;;;;;5018025;28;20049;-81
2023/04/15 08:32:02;;;;;;;10.50;7.37;;;8.50;99.90;;;;;;5006216;28;20104;-80
2023/04/15 08:34:28;;;;;;;9.90;6.63;;;8.50;99.90;;;;;;5015357;28;20094;-79
2023/04/15 08:36:54;;;;;;;11.47;7.03;;;8.50;99.90;;;;;;5010304;28;20393;-79
2023/04/15 08:39:20;;;;;;;10.93;7.17;;;8.50;99.90;;;;;;5003514;28;20052;-85
2023/04/15 08:41:49;;;;;;;9.37;6.50;;;8.40;99.90;;;;;;5000046;28;20230;-84
2023/04/15 08:44:16;;;;;;;8.63;6.10;;;8.40;99.90;;;;;;5032475;28;20041;-83
2023/04/15 08:46:43;;;;;;;9.33;5.63;;;8.50;99.90;;;;;;5016010;28;20083;-81
2023/04/15 08:49:12;;;;;;;10.03;5.10;;;8.50;99.90;;;;;;5032293;28;20065;-83
2023/04/15 08:51:41;;;;;;;7.00;5.13;;;8.50;99.90;;;;;;5015990;28;20050;-84
2023/04/15 08:54:08;;;;;;;8.47;5.23;;;8.50;99.90;;;;;;5032438;28;20033;-83
2023/04/15 08:56:35;;;;;;;7.67;5.70;;;8.50;99.90;;;;;;5012863;28;20042;-83
2023/04/15 08:59:02;;;;;;;7.47;5.03;;;8.40;99.90;;;;;;5016116;28;20048;-82
2023/04/15 09:01:28;;;;;;;6.13;4.87;;;8.40;99.90;;;;;;5021494;28;20080;-81
2023/04/15 09:03:55;;;;;;;7.97;5.13;;;8.40;99.90;;;;;;5015139;28;20068;-84
2023/04/15 09:06:22;;;;;;;7.23;5.13;;;8.50;99.90;;;;;;5015870;28;20046;-82
2023/04/15 09:08:49;;;;;;;9.30;5.33;;;8.50;99.90;;;;;;5028352;28;20130;-82
2023/04/15 09:11:16;;;;;;;6.47;4.70;;;8.50;99.90;;;;;;5015563;28;20049;-82
2023/04/15 09:13:42;;;;;;;7.03;4.50;;;8.60;99.90;;;;;;5015764;28;20485;-82
2023/04/15 09:16:09;;;;;;;6.87;4.70;;;8.70;99.90;;;;;;5000405;28;20034;-84
2023/04/15 09:18:36;;;;;;;5.80;3.93;;;8.70;99.90;;;;;;4998189;28;20385;-83
2023/04/15 09:21:10;;;;;;;6.93;3.80;;;8.70;99.90;;;;;;5031993;28;20573;-82
2023/04/15 09:23:38;;;;;;;7.03;3.90;;;8.80;99.90;;;;;;5030209;28;20037;-82
2023/04/15 09:26:04;;;;;;;5.00;3.60;;;8.90;99.90;;;;;;5004440;28;20493;-82
2023/04/15 09:28:31;;;;;;;6.03;3.70;;;8.80;99.90;;;;;;5027816;28;20120;-82
2023/04/15 09:30:57;;;;;;;5.17;3.60;;;8.80;99.90;;;;;;5011668;28;20077;-82
2023/04/15 09:33:24;;;;;;;5.73;3.60;;;8.80;99.90;;;;;;5009861;28;20041;-82
2023/04/15 09:36:04;;;;;;;4.63;3.70;;;8.80;99.90;;;;;;4981788;28;20046;-81
2023/04/15 09:38:30;;;;;;;6.23;3.80;;;8.80;99.90;;;;;;5011855;28;20041;-84
2023/04/15 09:40:57;;;;;;;6.07;3.97;;;8.80;99.90;;;;;;5031498;28;20440;-82
2023/04/15 09:43:39;;;;;;;5.13;3.70;;;8.80;99.90;;;;;;5031780;28;20434;-82
2023/04/15 09:46:05;;;;;;;4.80;3.40;;;8.80;99.90;;;;;;5031662;28;20442;-82
2023/04/15 09:48:30;;;;;;;6.93;3.70;;;8.80;99.90;;;;;;5014829;28;20124;-83
2023/04/15 09:51:01;;;;;;;4.80;3.30;;;8.80;99.90;;;;;;4998583;28;20057;-82
2023/04/15 09:53:27;;;;;;;5.40;3.57;;;8.80;99.90;;;;;;5015218;28;20047;-82
2023/04/15 09:55:55;;;;;;;4.67;3.43;;;8.80;99.90;;;;;;5014869;28;20033;-82
2023/04/15 09:58:26;;;;;;;3.77;3.27;;;8.80;99.90;;;;;;5031310;28;20121;-83
2023/04/15 10:00:54;;;;;;;5.50;3.60;;;8.90;99.90;;;;;;5014617;28;20501;-81
2023/04/15 10:03:28;;;;;;;3.97;3.43;;;8.90;99.90;;;;;;5031409;28;20053;-83
2023/04/15 10:05:56;;;;;;;5.20;3.43;;;8.90;99.90;;;;;;5016217;28;20076;-83
2023/04/15 10:08:33;;;;;;;4.70;3.70;;;9.00;99.90;;;;;;5014579;28;20041;-82
2023/04/15 10:11:01;;;;;;;5.47;3.33;;;9.00;99.90;;;;;;5030854;28;20120;-82
2023/04/15 10:13:31;;;;;;;5.57;3.40;;;9.00;99.90;;;;;;5030897;28;20041;-81
2023/04/15 10:15:59;;;;;;;4.67;3.17;;;9.10;99.90;;;;;;5007600;28;20088;-81
2023/04/15 10:18:27;;;;;;;4.93;3.13;;;9.10;99.90;;;;;;5014309;28;20087;-83
2023/04/15 10:20:54;;;;;;;6.40;3.43;;;9.10;99.90;;;;;;5030868;28;20042;-83
2023/04/15 10:23:21;;;;;;;4.50;3.40;;;9.10;99.90;;;;;;5030277;28;20512;-82
2023/04/15 10:25:50;;;;;;;5.07;3.27;;;9.10;99.90;;;;;;5027013;28;20097;-82
2023/04/15 10:28:16;;;;;;;4.50;3.20;;;9.10;99.90;;;;;;4999692;28;20080;-83
2023/04/15 10:30:42;;;;;;;4.50;3.37;;;9.10;99.90;;;;;;4991539;28;20563;-83
2023/04/15 10:33:08;;;;;;;4.13;3.27;;;9.10;99.90;;;;;;5013938;28;20128;-83
2023/04/15 10:35:35;;;;;;;6.80;3.43;;;9.20;99.90;;;;;;5030834;28;20037;-82
2023/04/15 10:38:01;;;;;;;5.13;3.63;;;9.20;99.90;;;;;;5016500;28;20038;-83
2023/04/15 10:40:31;;;;;;;5.43;3.30;;;9.20;99.90;;;;;;5012885;28;20149;-82
2023/04/15 10:43:01;;;;;;;4.87;3.07;;;9.20;99.90;;;;;;5003009;28;20046;-82
2023/04/15 10:45:38;;;;;;;4.10;3.07;;;9.20;99.90;;;;;;5022096;28;20148;-84
2023/04/15 10:48:06;;;;;;;6.13;3.10;;;9.20;99.90;;;;;;5030059;28;20443;-84
2023/04/15 10:50:32;;;;;;;4.57;2.90;;;9.20;99.90;;;;;;5029943;28;20053;-83
2023/04/15 10:53:01;;;;;;;4.07;2.77;;;9.20;99.90;;;;;;5009364;28;20048;-84
2023/04/15 10:55:31;;;;;;;6.87;3.23;;;9.20;99.90;;;;;;5013534;28;20124;-83
2023/04/15 10:58:00;;;;;;;4.47;3.10;;;9.20;99.90;;;;;;5012976;28;20521;-84
2023/04/15 11:00:28;;;;;;;4.43;3.37;;;9.30;99.90;;;;;;5013143;28;20046;-83
2023/04/15 11:03:08;;;;;;;4.40;2.90;;;9.40;99.90;;;;;;5029873;28;20045;-83
2023/04/15 11:05:40;;;;;;;3.17;2.70;;;9.40;99.90;;;;;;5003749;28;20041;-83
2023/04/15 11:08:06;;;;;;;3.70;3.10;;;9.40;99.90;;;;;;4995311;28;20536;-84
2023/04/15 11:10:32;;;;;;;3.67;2.93;;;9.40;99.90;;;;;;5020541;28;20045;-84
2023/04/15 11:13:03;;;;;;;4.23;2.70;;;9.30;99.90;;;;;;5019972;28;20052;-84
2023/04/15 11:15:36;;;;;;;4.33;3.03;;;9.30;99.90;;;;;;4993105;28;20077;-83
2023/04/15 11:18:14;;;;;;;4.57;2.90;;;9.40;99.90;;;;;;4986478;28;20052;-84
2023/04/15 11:20:50;;;;;;;5.90;3.20;;;9.30;99.90;;;;;;5028702;28;20042;-84
2023/04/15 11:23:18;;;;;;;9.40;3.60;;;9.30;99.90;;;;;;5012806;28;20087;-81
2023/04/15 11:25:44;;;;;;;7.60;3.70;;;9.20;99.90;;;;;;4997242;28;20049;-81
2023/04/15 11:28:11;;;;;;;5.60;3.10;;;9.30;99.90;;;;;;5010351;28;20057;-82
2023/04/15 11:30:38;;;;;;;5.93;3.50;;;9.30;99.90;;;;;;4970828;28;20504;-81
2023/04/15 11:33:09;;;;;;;8.00;3.93;;;9.30;99.90;;;;;;5030204;28;20052;-82
2023/04/15 11:35:35;;;;;;;9.37;3.90;;;9.40;99.90;;;;;;5030132;28;20048;-82
2023/04/15 11:38:07;;;;;;;6.90;3.57;;;9.40;99.90;;;;;;5029983;28;20076;-82
2023/04/15 11:40:34;;;;;;;;;;;9.50;99.90;;;;;;5016892;28;20049;-82
2023/04/15 11:43:15;;;;;;;4.73;3.33;;;9.40;99.90;;;;;;5016820;28;19924;-83
2023/04/15 11:45:55;;;;;;;7.13;3.27;;;9.50;99.90;;;;;;5006798;28;20432;-82
2023/04/15 11:48:25;;;;;;;6.10;3.50;;;9.60;99.90;;;;;;5009611;28;20489;-82
2023/04/15 11:50:59;;;;;;;8.10;3.87;;;9.70;99.90;;;;;;5016942;28;20053;-82
2023/04/15 11:53:46;;;;;;;7.73;3.73;;;9.70;99.90;;;;;;5011301;28;20555;-83
2023/04/15 11:56:22;;;;;;;9.57;4.20;;;9.60;99.90;;;;;;4997933;28;20031;-83
2023/04/15 11:58:52;;;;;;;4.67;3.50;;;9.50;99.90;;;;;;5027114;28;20034;-82
2023/04/15 12:01:18;;;;;;;6.63;3.90;;;9.50;99.90;;;;;;5006055;28;20070;-82
2023/04/15 12:03:48;;;;;;;9.67;4.10;;;9.40;99.90;;;;;;4987625;28;20038;-82
2023/04/15 12:06:17;;;;;;;6.33;3.43;;;9.40;99.90;;;;;;5010631;28;20081;-84
2023/04/15 12:09:08;;;;;;;8.40;3.90;;;9.30;99.90;;;;;;5029782;28;20451;-84
2023/04/15 12:11:44;;;;;;;6.63;3.27;;;9.30;99.90;;;;;;5033157;28;20069;-83
2023/04/15 12:14:25;;;;;;;5.83;3.43;;;9.30;99.90;;;;;;5017484;28;20081;-84
2023/04/15 12:16:53;;;;;;;6.13;3.40;;;9.40;99.90;;;;;;5021832;28;20037;-84
2023/04/15 12:19:24;;;;;;;8.20;3.50;;;9.40;99.90;;;;;;5016225;28;20037;-83
2023/04/15 12:21:51;;;;;;;6.33;3.17;;;9.30;99.90;;;;;;5027053;28;20048;-82
2023/04/15 12:24:21;;;;;;;9.90;3.40;;;9.30;99.90;;;;;;5020992;28;20056;-83
2023/04/15 12:26:52;;;;;;;9.30;2.90;;;9.40;99.90;;;;;;5016883;28;20052;-83
2023/04/15 12:29:18;;;;;;;11.07;3.40;;;9.40;99.90;;;;;;5016374;28;20096;-83
2023/04/15 12:31:49;;;;;;;8.30;3.00;;;9.30;99.90;;;;;;5021249;28;20056;-83
2023/04/15 12:34:15;;;;;;;7.73;3.03;;;9.30;99.90;;;;;;5032793;28;20064;-83
2023/04/15 12:36:42;;;;;;;5.60;3.07;;;9.30;99.90;;;;;;5025022;28;20045;-85
2023/04/15 12:39:08;;;;;;;8.03;3.00;;;9.20;99.90;;;;;;5019151;28;20127;-83
2023/04/15 12:41:34;;;;;;;8.77;2.63;;;9.20;99.90;;;;;;5018712;28;20434;-83
2023/04/15 12:44:00;;;;;;;9.00;3.00;;;9.10;99.90;;;;;;5001967;28;20041;-84
2023/04/15 12:46:26;;;;;;;7.40;3.17;;;9.20;99.90;;;;;;4994078;28;20049;-84